createdAt,value
2023-07-03T00:00:40.380Z,23.10
2023-07-03T00:03:07.908Z,23.14
2023-07-03T00:05:36.456Z,23.09
2023-07-03T00:08:03.970Z,23.23
2023-07-03T00:10:31.427Z,22.98
2023-07-03T00:12:58.918Z,23.19
2023-07-03T00:15:26.382Z,23.32
2023-07-03T00:17:53.926Z,23.36
2023-07-03T00:20:21.467Z,23.46
2023-07-03T00:22:49.587Z,23.33
2023-07-03T00:25:17.160Z,23.08
2023-07-03T00:27:45.754Z,23.26
2023-07-03T00:30:14.488Z,23.36
2023-07-03T00:32:42.099Z,23.32
2023-07-03T00:35:10.072Z,23.19
2023-07-03T00:37:37.543Z,23.14
2023-07-03T00:40:08.386Z,23.14
2023-07-03T00:42:36.148Z,22.98
2023-07-03T00:45:10.058Z,23.07
2023-07-03T00:47:39.609Z,23.06
2023-07-03T00:50:08.088Z,23.12
2023-07-03T00:52:35.829Z,23.22
2023-07-03T00:55:04.490Z,23.37
2023-07-03T00:57:32.525Z,22.99
2023-07-03T01:00:01.082Z,23.20
2023-07-03T01:03:03.704Z,23.08
2023-07-03T01:05:41.557Z,23.06
2023-07-03T01:08:13.107Z,23.19
2023-07-03T01:10:42.658Z,23.15
2023-07-03T01:13:18.757Z,23.16
2023-07-03T01:15:48.202Z,22.91
2023-07-03T01:18:16.902Z,22.89
2023-07-03T01:21:23.755Z,22.97
2023-07-03T01:24:18.772Z,22.95
2023-07-03T01:26:47.943Z,23.11
2023-07-03T01:29:17.552Z,23.21
2023-07-03T01:31:46.150Z,23.17
2023-07-03T01:34:14.498Z,23.30
2023-07-03T01:36:43.284Z,23.27
2023-07-03T01:39:11.309Z,23.28
2023-07-03T01:41:39.843Z,23.14
2023-07-03T01:44:07.901Z,23.10
2023-07-03T01:46:36.358Z,23.11
2023-07-03T01:49:04.002Z,23.28
2023-07-03T01:52:23.109Z,23.34
2023-07-03T01:55:21.837Z,23.39
2023-07-03T01:58:33.972Z,23.39
2023-07-03T02:01:23.077Z,23.45
2023-07-03T02:04:12.067Z,23.47
2023-07-03T02:06:45.860Z,23.41
2023-07-03T04:43:53.015Z,21.28
2023-07-03T04:46:25.217Z,21.35
2023-07-03T04:49:00.706Z,21.58
2023-07-03T04:51:32.639Z,21.85
2023-07-03T04:54:02.108Z,21.95
2023-07-03T04:56:33.630Z,21.74
2023-07-03T04:59:01.221Z,21.81
2023-07-03T05:11:17.996Z,21.70
2023-07-03T05:13:45.727Z,21.97
2023-07-03T05:16:13.328Z,21.80
2023-07-03T05:18:41.525Z,22.20
2023-07-03T05:21:09.477Z,22.20
2023-07-03T05:23:37.403Z,22.13
2023-07-03T05:26:05.339Z,22.29
2023-07-03T05:28:33.436Z,22.34
2023-07-03T05:31:01.886Z,22.09
2023-07-03T05:33:31.768Z,21.78
2023-07-03T05:36:03.761Z,22.28
2023-07-03T05:38:32.097Z,22.17
2023-07-03T05:40:59.622Z,22.16
2023-07-03T05:43:28.136Z,22.30
2023-07-03T05:45:55.660Z,21.86
2023-07-03T05:48:26.013Z,22.35
2023-07-03T05:50:53.580Z,21.97
2023-07-03T05:53:22.573Z,22.43
2023-07-03T05:55:59.485Z,22.30
2023-07-03T05:58:28.977Z,22.46
2023-07-03T06:00:57.058Z,22.33
2023-07-03T06:03:26.415Z,22.36
2023-07-03T06:05:54.356Z,21.89
2023-07-03T06:08:22.162Z,22.24
2023-07-03T06:10:49.631Z,22.34
2023-07-03T06:13:17.877Z,22.26
2023-07-03T06:15:45.733Z,22.28
2023-07-03T06:18:13.469Z,22.54
2023-07-03T06:20:41.017Z,22.64
2023-07-03T06:23:08.669Z,22.48
2023-07-03T06:25:36.249Z,22.03
2023-07-03T06:28:04.251Z,22.56
2023-07-03T06:30:31.742Z,22.49
2023-07-03T06:32:59.292Z,22.36
2023-07-03T06:35:27.255Z,22.41
2023-07-03T06:37:57.338Z,22.64
2023-07-03T06:40:25.010Z,22.06
2023-07-03T06:42:54.475Z,22.48
2023-07-03T06:45:22.017Z,22.38
2023-07-03T06:47:49.585Z,22.19
2023-07-03T06:50:17.658Z,22.15
2023-07-03T06:52:48.670Z,22.10
2023-07-03T06:55:16.317Z,22.19
2023-07-03T06:57:43.868Z,22.62
2023-07-03T07:00:12.506Z,22.39
2023-07-03T07:02:40.176Z,22.48
2023-07-03T07:05:08.578Z,22.64
2023-07-03T07:07:36.173Z,22.60
2023-07-03T07:10:04.543Z,22.32
2023-07-03T07:12:32.080Z,22.42
2023-07-03T07:14:59.562Z,22.18
2023-07-03T07:17:35.591Z,22.33
2023-07-03T07:20:14.156Z,22.59
2023-07-03T07:22:41.623Z,22.41
2023-07-03T07:25:09.723Z,22.35
2023-07-03T07:27:37.226Z,22.74
2023-07-03T07:30:05.568Z,22.92
2023-07-03T07:32:33.048Z,22.66
2023-07-03T07:35:00.558Z,22.79
2023-07-03T07:37:28.001Z,22.95
2023-07-03T07:39:55.446Z,22.99
2023-07-03T07:42:22.953Z,23.16
2023-07-03T07:44:50.559Z,22.93
2023-07-03T07:47:18.045Z,22.73
2023-07-03T07:49:46.127Z,22.88
2023-07-03T07:52:13.686Z,22.92
2023-07-03T07:54:41.178Z,22.55
2023-07-03T07:57:08.975Z,22.63
2023-07-03T07:59:37.456Z,22.87
2023-07-03T08:02:05.404Z,22.62
2023-07-03T08:04:34.539Z,23.18
2023-07-03T08:07:02.215Z,23.05
2023-07-03T08:09:29.743Z,23.17
2023-07-03T08:11:57.306Z,23.31
2023-07-03T08:14:24.862Z,23.54
2023-07-03T08:16:52.578Z,23.71
2023-07-03T08:19:20.271Z,23.91
2023-07-03T08:21:47.781Z,23.33
2023-07-03T08:24:15.508Z,23.17
2023-07-03T08:26:50.248Z,23.15
2023-07-03T08:29:18.151Z,23.35
2023-07-03T08:31:45.752Z,23.58
2023-07-03T08:34:13.292Z,23.82
2023-07-03T08:39:11.109Z,23.41
2023-07-03T08:41:56.224Z,23.86
2023-07-03T08:44:23.889Z,23.94
2023-07-03T08:47:09.666Z,23.62
2023-07-03T08:49:39.318Z,23.48
2023-07-03T08:52:08.575Z,23.73
2023-07-03T08:54:38.898Z,23.56
2023-07-03T08:57:12.006Z,23.90
2023-07-03T08:59:39.990Z,24.09
2023-07-03T09:02:22.257Z,23.60
2023-07-03T09:05:38.558Z,23.89
2023-07-03T09:08:15.134Z,23.70
2023-07-03T09:10:51.034Z,24.06
2023-07-03T09:13:44.531Z,24.16
2023-07-03T09:16:22.697Z,23.46
2023-07-03T09:19:07.632Z,24.06
2023-07-03T09:21:36.950Z,24.34
2023-07-03T09:24:27.617Z,23.73
2023-07-03T09:27:24.807Z,24.46
2023-07-03T09:29:53.205Z,23.74
2023-07-03T09:32:31.718Z,23.78
2023-07-03T09:35:21.308Z,24.05
2023-07-03T09:37:59.536Z,24.31
2023-07-03T09:40:38.866Z,24.02
2023-07-03T09:43:27.198Z,24.04
2023-07-03T09:46:17.778Z,23.91
2023-07-03T09:48:45.933Z,24.08
2023-07-03T09:51:30.322Z,24.54
2023-07-03T09:54:06.996Z,24.87
2023-07-03T09:56:35.018Z,24.38
2023-07-03T09:59:06.897Z,24.96
2023-07-03T10:07:09.003Z,24.76
2023-07-03T10:12:45.569Z,24.72
2023-07-03T10:15:30.224Z,25.07
2023-07-03T10:18:15.210Z,24.59
2023-07-03T10:20:45.385Z,24.91
2023-07-03T10:23:29.077Z,24.96
2023-07-03T10:26:39.524Z,25.14
2023-07-03T10:29:27.591Z,24.81
2023-07-03T10:32:17.533Z,24.29
2023-07-03T10:35:29.487Z,24.35
2023-07-03T10:38:12.728Z,24.87
2023-07-03T10:40:56.959Z,24.89
2023-07-03T10:43:34.024Z,24.64
2023-07-03T10:46:03.477Z,24.34
2023-07-03T10:48:34.641Z,24.66
2023-07-03T10:51:48.226Z,24.56
2023-07-03T10:54:31.169Z,24.92
2023-07-03T10:57:06.625Z,25.73
2023-07-03T10:59:43.784Z,26.05
2023-07-03T11:02:42.725Z,25.61
2023-07-03T11:05:36.072Z,25.38
2023-07-03T11:08:55.864Z,26.04
2023-07-03T11:12:34.874Z,25.57
2023-07-03T11:16:03.806Z,25.33
2023-07-03T11:28:51.592Z,26.11
2023-07-03T11:31:21.241Z,25.40
2023-07-03T11:44:50.049Z,26.15
2023-07-03T11:47:32.267Z,25.77
2023-07-03T11:50:06.178Z,25.55
2023-07-03T11:52:42.477Z,26.79
2023-07-03T11:55:20.170Z,26.72
2023-07-03T11:58:14.517Z,26.65
2023-07-03T12:00:45.619Z,26.22
2023-07-03T12:03:15.685Z,26.04
2023-07-03T12:05:49.324Z,26.49
2023-07-03T12:08:19.626Z,26.65
2023-07-03T12:10:56.225Z,26.46
2023-07-03T12:13:47.655Z,26.75
2023-07-03T12:16:26.044Z,26.79
2023-07-03T12:19:11.551Z,26.75
2023-07-03T12:21:47.629Z,26.88
2023-07-03T12:24:33.448Z,27.23
2023-07-03T12:27:08.185Z,27.23
2023-07-03T12:29:49.369Z,27.43
2023-07-03T12:32:49.488Z,27.60
2023-07-03T12:35:28.485Z,27.23
2023-07-03T12:38:06.703Z,27.44
2023-07-03T12:40:41.873Z,27.53
2023-07-03T12:43:10.788Z,27.12
2023-07-03T12:45:38.459Z,27.24
2023-07-03T12:48:24.356Z,26.38
2023-07-03T12:50:57.857Z,27.58
2023-07-03T12:53:35.081Z,27.80
2023-07-03T12:56:10.522Z,27.51
2023-07-03T12:58:39.004Z,28.13
2023-07-03T13:01:09.300Z,27.30
2023-07-03T13:03:43.064Z,26.77
2023-07-03T13:06:29.493Z,27.68
2023-07-03T13:08:59.852Z,27.60
2023-07-03T13:11:46.097Z,26.45
2023-07-03T13:14:29.394Z,26.72
2023-07-03T13:17:02.487Z,27.10
2023-07-03T13:19:37.436Z,27.69
2023-07-03T13:22:19.509Z,27.31
2023-07-03T13:24:52.073Z,26.53
2023-07-03T13:27:28.245Z,26.63
2023-07-03T13:30:36.782Z,26.74
2023-07-03T13:33:15.168Z,26.88
2023-07-03T13:35:49.691Z,27.52
2023-07-03T13:38:27.726Z,27.21
2023-07-03T13:41:00.347Z,27.38
2023-07-03T13:43:33.652Z,27.49
2023-07-03T13:46:02.124Z,26.82
2023-07-03T13:48:30.654Z,26.54
2023-07-03T13:50:58.509Z,27.28
2023-07-03T13:53:27.748Z,27.17
2023-07-03T13:55:55.316Z,27.06
2023-07-03T13:58:22.879Z,27.39
2023-07-03T14:00:50.532Z,27.14
2023-07-03T14:03:18.294Z,26.23
2023-07-03T14:05:45.968Z,26.25
2023-07-03T14:08:13.780Z,26.53
2023-07-03T14:10:41.368Z,26.45
2023-07-03T14:13:11.010Z,26.11
2023-07-03T14:15:39.547Z,26.78
2023-07-03T14:18:07.188Z,26.82
2023-07-03T14:20:34.781Z,26.89
2023-07-03T14:23:04.508Z,26.45
2023-07-03T14:25:32.698Z,26.53
2023-07-03T14:28:01.396Z,26.02
2023-07-03T14:30:28.948Z,26.29
2023-07-03T14:32:56.763Z,26.16
2023-07-03T14:35:25.385Z,26.13
2023-07-03T14:37:53.234Z,26.35
2023-07-03T14:40:21.020Z,25.97
2023-07-03T14:42:48.773Z,25.90
2023-07-03T14:45:16.804Z,26.07
2023-07-03T14:47:44.406Z,26.64
2023-07-03T14:50:13.307Z,26.44
2023-07-03T14:52:49.265Z,26.26
2023-07-03T14:55:19.049Z,26.22
2023-07-03T14:57:46.990Z,26.25
2023-07-03T15:00:15.745Z,25.92
2023-07-03T15:02:47.235Z,26.76
2023-07-03T15:05:16.356Z,27.46
2023-07-03T15:07:49.945Z,28.28
2023-07-03T15:10:18.859Z,27.84
2023-07-03T15:12:47.233Z,28.29
2023-07-03T15:15:15.337Z,28.24
2023-07-03T15:17:43.107Z,28.82
2023-07-03T15:20:11.862Z,28.95
2023-07-03T15:22:39.348Z,29.06
2023-07-03T15:25:07.761Z,28.80
2023-07-03T15:27:35.373Z,28.72
2023-07-03T15:30:03.935Z,29.02
2023-07-03T15:32:32.818Z,29.12
2023-07-03T15:35:00.367Z,29.27
2023-07-03T15:37:27.975Z,29.39
2023-07-03T15:39:55.958Z,29.21
2023-07-03T15:42:24.307Z,29.38
2023-07-03T15:44:59.283Z,29.58
2023-07-03T15:47:27.844Z,29.85
2023-07-03T15:49:58.524Z,29.50
2023-07-03T15:52:26.863Z,29.69
2023-07-03T15:54:54.724Z,29.47
2023-07-03T15:57:22.944Z,29.28
2023-07-03T15:59:50.792Z,29.75
2023-07-03T16:02:18.367Z,29.67
2023-07-03T16:04:45.981Z,29.25
2023-07-03T16:07:13.483Z,29.11
2023-07-03T16:09:40.953Z,29.74
2023-07-03T16:12:08.631Z,29.95
2023-07-03T16:14:36.121Z,29.33
2023-07-03T16:17:03.678Z,29.42
2023-07-03T16:19:32.009Z,28.95
2023-07-03T16:21:59.526Z,28.94
2023-07-03T16:24:26.989Z,28.76
2023-07-03T16:26:54.460Z,29.58
2023-07-03T16:29:21.960Z,30.09
2023-07-03T16:31:49.619Z,30.14
2023-07-03T16:34:17.162Z,29.76
2023-07-03T16:36:44.608Z,29.14
2023-07-03T16:39:12.480Z,28.36
2023-07-03T16:41:40.935Z,28.31
2023-07-03T16:44:08.436Z,28.30
2023-07-03T16:46:39.580Z,27.79
2023-07-03T16:49:08.087Z,28.12
2023-07-03T16:51:35.583Z,27.89
2023-07-03T16:54:03.505Z,27.29
2023-07-03T16:56:31.115Z,27.41
2023-07-03T16:58:59.649Z,27.78
2023-07-03T17:01:30.877Z,27.62
2023-07-03T17:03:59.368Z,27.61
2023-07-03T17:06:36.406Z,27.61
2023-07-03T17:09:05.121Z,28.32
2023-07-03T17:11:32.838Z,28.71
2023-07-03T17:14:01.214Z,27.91
2023-07-03T17:16:29.988Z,28.26
2023-07-03T17:18:57.954Z,27.62
2023-07-03T17:21:26.556Z,27.73
2023-07-03T17:24:06.285Z,28.02
2023-07-03T17:26:34.424Z,27.33
2023-07-03T17:29:04.841Z,27.17
2023-07-03T17:31:32.937Z,27.47
2023-07-03T17:34:01.272Z,27.77
2023-07-03T17:36:29.428Z,27.21
2023-07-03T17:38:56.992Z,26.87
2023-07-03T17:41:24.965Z,27.14
2023-07-03T17:43:53.112Z,27.39
2023-07-03T17:46:20.627Z,26.91
2023-07-03T17:48:48.503Z,26.96
2023-07-03T17:51:16.102Z,27.10
2023-07-03T17:53:45.739Z,27.02
2023-07-03T17:56:13.993Z,26.77
2023-07-03T17:58:43.923Z,26.89
2023-07-03T18:01:13.104Z,26.93
2023-07-03T18:03:41.578Z,27.09
2023-07-03T18:06:13.652Z,27.20
2023-07-03T18:08:41.640Z,27.32
2023-07-03T18:11:09.265Z,26.93
2023-07-03T18:13:37.665Z,26.70
2023-07-03T18:16:05.499Z,26.47
2023-07-03T18:18:33.183Z,26.64
2023-07-03T18:21:01.110Z,26.54
2023-07-03T18:23:28.784Z,26.25
2023-07-03T18:25:56.813Z,26.61
2023-07-03T18:28:25.205Z,26.39
2023-07-03T18:31:04.450Z,26.39
2023-07-03T18:33:34.908Z,26.20
2023-07-03T18:36:03.408Z,26.23
2023-07-03T18:38:31.745Z,26.48
2023-07-03T18:41:06.864Z,26.42
2023-07-03T18:43:34.642Z,26.42
2023-07-03T18:46:02.222Z,26.16
2023-07-03T18:48:29.848Z,26.12
2023-07-03T18:50:57.375Z,26.23
2023-07-03T18:53:25.411Z,26.32
2023-07-03T18:55:54.202Z,26.12
2023-07-03T18:58:21.977Z,26.22
2023-07-03T19:00:50.105Z,26.08
2023-07-03T19:03:17.914Z,26.23
2023-07-03T19:06:09.829Z,26.19
2023-07-03T19:08:37.913Z,26.20
2023-07-03T19:11:07.775Z,26.56
2023-07-03T19:13:35.800Z,26.44
2023-07-03T19:16:03.514Z,26.14
2023-07-03T19:18:31.278Z,26.51
2023-07-03T19:20:58.732Z,26.43
2023-07-03T19:23:26.670Z,26.39
2023-07-03T19:26:00.126Z,26.48
2023-07-03T19:28:27.990Z,26.40
2023-07-03T19:31:00.675Z,26.06
2023-07-03T19:33:31.002Z,26.16
2023-07-03T19:36:00.557Z,26.06
2023-07-03T19:38:28.635Z,25.64
2023-07-03T19:40:57.055Z,25.63
2023-07-03T19:43:24.510Z,25.62
2023-07-03T19:45:52.078Z,25.55
2023-07-03T19:48:19.731Z,25.79
2023-07-03T19:50:49.187Z,25.51
2023-07-03T19:53:17.708Z,25.75
2023-07-03T19:55:45.739Z,25.48
2023-07-03T19:58:13.585Z,25.19
2023-07-03T20:00:41.433Z,25.16
2023-07-03T20:03:11.500Z,25.02
2023-07-03T20:05:42.828Z,25.32
2023-07-03T20:08:10.297Z,25.53
2023-07-03T20:10:39.005Z,25.50
2023-07-03T20:13:06.605Z,25.36
2023-07-03T20:15:34.105Z,25.27
2023-07-03T20:18:01.764Z,25.41
2023-07-03T20:20:29.625Z,25.47
2023-07-03T20:22:58.176Z,25.47
2023-07-03T20:25:25.901Z,25.73
2023-07-03T20:27:54.397Z,25.44
2023-07-03T20:30:22.447Z,25.59
2023-07-03T20:32:50.099Z,25.55
2023-07-03T20:35:19.209Z,25.59
2023-07-03T20:37:46.859Z,25.41
2023-07-03T20:40:14.514Z,25.62
2023-07-03T20:42:42.367Z,25.41
2023-07-03T20:45:11.417Z,24.67
2023-07-03T20:47:39.045Z,24.85
2023-07-03T20:50:07.949Z,25.17
2023-07-03T20:52:41.059Z,25.49
2023-07-03T20:55:36.663Z,25.12
2023-07-03T20:58:04.385Z,25.36
2023-07-03T21:00:32.014Z,25.35
2023-07-03T21:02:59.675Z,24.94
2023-07-03T21:05:27.989Z,25.01
2023-07-03T21:07:56.395Z,25.11
2023-07-03T21:10:23.840Z,25.13
2023-07-03T21:12:51.322Z,25.22
2023-07-03T21:15:20.059Z,25.35
2023-07-03T21:17:48.237Z,25.23
2023-07-03T21:20:15.842Z,25.17
2023-07-03T21:22:43.305Z,25.20
2023-07-03T21:25:12.027Z,25.59
2023-07-03T21:27:39.470Z,25.29
2023-07-03T21:30:08.371Z,25.30
2023-07-03T21:32:36.724Z,25.33
2023-07-03T21:35:04.469Z,25.35
2023-07-03T21:37:32.829Z,25.51
2023-07-03T21:40:00.398Z,25.18
2023-07-03T21:42:27.892Z,25.13
2023-07-03T21:44:55.373Z,25.03
2023-07-03T21:47:22.929Z,25.07
2023-07-03T21:49:50.617Z,25.22
2023-07-03T21:52:18.074Z,24.87
2023-07-03T21:54:48.833Z,25.04
2023-07-03T21:57:19.373Z,25.06
2023-07-03T21:59:50.394Z,24.97
2023-07-03T22:02:17.933Z,25.10
2023-07-03T22:04:45.600Z,25.18
2023-07-03T22:07:13.786Z,25.26
2023-07-03T22:09:41.302Z,25.02
2023-07-03T22:12:12.965Z,25.22
2023-07-03T22:14:40.774Z,25.11
2023-07-03T22:17:08.400Z,25.16
2023-07-03T22:19:39.794Z,25.09
2023-07-03T22:22:08.441Z,25.17
2023-07-03T22:24:35.961Z,25.03
2023-07-03T22:27:07.184Z,24.95
2023-07-03T22:29:36.795Z,24.81
2023-07-03T22:32:04.842Z,24.80
2023-07-03T22:34:32.360Z,24.81
2023-07-03T22:36:59.845Z,24.59
2023-07-03T22:39:27.333Z,24.55
2023-07-03T22:41:54.833Z,24.27
2023-07-03T22:44:22.332Z,24.49
2023-07-03T22:46:53.575Z,24.62
2023-07-03T22:49:25.517Z,24.64
2023-07-03T22:51:53.681Z,24.64
2023-07-03T22:54:22.973Z,24.60
2023-07-03T22:56:50.728Z,24.35
2023-07-03T22:59:18.329Z,24.00
2023-07-03T23:01:49.581Z,23.73
2023-07-03T23:04:17.905Z,23.72
2023-07-03T23:06:47.234Z,23.41
2023-07-03T23:09:17.958Z,23.70
2023-07-03T23:11:45.644Z,23.41
2023-07-03T23:14:16.782Z,23.58
2023-07-03T23:16:47.531Z,23.33
2023-07-03T23:19:17.896Z,23.15
2023-07-03T23:21:53.084Z,22.75
2023-07-03T23:24:21.955Z,22.71
2023-07-03T23:26:53.769Z,22.92
2023-07-03T23:29:22.315Z,22.78
2023-07-03T23:31:51.019Z,22.87
2023-07-03T23:34:18.824Z,23.24
2023-07-03T23:36:49.661Z,23.05
2023-07-03T23:39:19.260Z,23.39
2023-07-03T23:41:47.233Z,23.06
2023-07-03T23:44:15.914Z,23.15
2023-07-03T23:46:43.492Z,23.29
2023-07-03T23:49:11.324Z,23.20
2023-07-03T23:51:38.821Z,23.32
2023-07-03T23:54:07.080Z,23.63
2023-07-03T23:56:35.479Z,23.70
2023-07-03T23:59:05.053Z,23.48
